Weather at Workman Airpark

Public forecast

Using degrees Fahrenheit for public forecast. Weather courtesy of forecast.io.

Closest aviation weather report (METAR) to Workman Airpark

Closest report is Aurora State Airport, 4.9 nm (9.0 km) WNW. Retrieved 2021/05/07 06:53 UTC (55 minutes ago):

KUAO 070653Z AUTO 00000KT 10SM SCT055 09/06 A3020 RMK AO2 SLP226 T00940056

Closest aviation forecast (TAF) to Workman Airpark

Closest forecast is Aurora State Airport, 4.9 nm (9.0 km) WNW. Retrieved 2021/05/07 06:20 UTC (1 hour ago):

TAF KUAO 070520Z 0706/0806 24006KT P6SM VCSH BKN050 BKN070 FM071200 23007KT P6SM -SHRA BKN035 BKN050 FM072100 26010G17KT P6SM VCSH SCT040 BKN070 FM080400 29007KT P6SM SCT070 BKN120